sensor_id;sensor_type;location;lat;lon;timestamp;P1;durP1;ratioP1;P2;durP2;ratioP2
46028;SDS011;31763;48.180;7.904;2023-08-06T00:02:27;5.15;;;2.35;;
46028;SDS011;31763;48.180;7.904;2023-08-06T00:04:54;3.55;;;2.20;;
46028;SDS011;31763;48.180;7.904;2023-08-06T00:07:21;1.83;;;1.20;;
46028;SDS011;31763;48.180;7.904;2023-08-06T00:09:48;3.35;;;1.55;;
46028;SDS011;31763;48.180;7.904;2023-08-06T00:12:16;9.45;;;2.08;;
46028;SDS011;31763;48.180;7.904;2023-08-06T00:14:43;4.60;;;1.90;;
46028;SDS011;31763;48.180;7.904;2023-08-06T00:17:11;2.60;;;1.58;;
46028;SDS011;31763;48.180;7.904;2023-08-06T00:19:38;5.30;;;1.70;;
46028;SDS011;31763;48.180;7.904;2023-08-06T00:22:05;4.25;;;1.80;;
46028;SDS011;31763;48.180;7.904;2023-08-06T00:24:33;4.68;;;2.05;;
46028;SDS011;31763;48.180;7.904;2023-08-06T00:27:01;4.75;;;1.58;;
46028;SDS011;31763;48.180;7.904;2023-08-06T00:29:28;2.22;;;1.35;;
46028;SDS011;31763;48.180;7.904;2023-08-06T00:31:55;4.05;;;2.13;;
46028;SDS011;31763;48.180;7.904;2023-08-06T00:34:23;2.17;;;1.33;;
46028;SDS011;31763;48.180;7.904;2023-08-06T00:36:50;7.80;;;2.17;;
46028;SDS011;31763;48.180;7.904;2023-08-06T00:39:17;5.05;;;2.40;;
46028;SDS011;31763;48.180;7.904;2023-08-06T00:41:44;2.15;;;1.50;;
46028;SDS011;31763;48.180;7.904;2023-08-06T00:44:12;2.65;;;1.85;;
46028;SDS011;31763;48.180;7.904;2023-08-06T00:46:39;6.85;;;2.75;;
46028;SDS011;31763;48.180;7.904;2023-08-06T00:49:06;6.00;;;1.98;;
46028;SDS011;31763;48.180;7.904;2023-08-06T00:51:34;3.53;;;1.85;;
46028;SDS011;31763;48.180;7.904;2023-08-06T00:54:01;3.47;;;1.92;;
46028;SDS011;31763;48.180;7.904;2023-08-06T00:56:29;2.85;;;1.83;;
46028;SDS011;31763;48.180;7.904;2023-08-06T00:58:56;6.40;;;2.20;;
46028;SDS011;31763;48.180;7.904;2023-08-06T01:01:25;7.20;;;2.20;;
46028;SDS011;31763;48.180;7.904;2023-08-06T01:04:10;3.33;;;1.98;;
46028;SDS011;31763;48.180;7.904;2023-08-06T01:06:55;2.92;;;2.17;;
46028;SDS011;31763;48.180;7.904;2023-08-06T01:16:00;3.38;;;2.00;;
46028;SDS011;31763;48.180;7.904;2023-08-06T01:18:42;2.05;;;1.52;;
46028;SDS011;31763;48.180;7.904;2023-08-06T01:24:43;2.42;;;1.27;;
46028;SDS011;31763;48.180;7.904;2023-08-06T01:27:22;4.28;;;1.75;;
46028;SDS011;31763;48.180;7.904;2023-08-06T01:29:57;2.88;;;1.67;;
46028;SDS011;31763;48.180;7.904;2023-08-06T01:32:34;2.88;;;1.48;;
46028;SDS011;31763;48.180;7.904;2023-08-06T01:35:02;4.38;;;1.80;;
46028;SDS011;31763;48.180;7.904;2023-08-06T01:37:31;2.15;;;1.65;;
46028;SDS011;31763;48.180;7.904;2023-08-06T01:39:58;3.08;;;1.60;;
46028;SDS011;31763;48.180;7.904;2023-08-06T01:42:25;1.20;;;1.00;;
46028;SDS011;31763;48.180;7.904;2023-08-06T01:44:52;3.13;;;1.25;;
46028;SDS011;31763;48.180;7.904;2023-08-06T01:47:20;2.05;;;1.10;;
46028;SDS011;31763;48.180;7.904;2023-08-06T01:49:47;4.40;;;1.40;;
46028;SDS011;31763;48.180;7.904;2023-08-06T01:52:14;3.67;;;1.83;;
46028;SDS011;31763;48.180;7.904;2023-08-06T01:54:41;3.85;;;1.58;;
46028;SDS011;31763;48.180;7.904;2023-08-06T01:57:09;3.35;;;1.60;;
46028;SDS011;31763;48.180;7.904;2023-08-06T01:59:36;4.88;;;3.05;;
46028;SDS011;31763;48.180;7.904;2023-08-06T02:02:03;3.92;;;2.00;;
46028;SDS011;31763;48.180;7.904;2023-08-06T02:04:31;3.88;;;2.50;;
46028;SDS011;31763;48.180;7.904;2023-08-06T02:06:58;3.72;;;2.22;;
46028;SDS011;31763;48.180;7.904;2023-08-06T02:09:25;4.32;;;2.22;;
46028;SDS011;31763;48.180;7.904;2023-08-06T02:11:52;5.13;;;2.30;;
46028;SDS011;31763;48.180;7.904;2023-08-06T02:14:20;7.40;;;2.05;;
46028;SDS011;31763;48.180;7.904;2023-08-06T02:16:47;2.63;;;1.40;;
46028;SDS011;31763;48.180;7.904;2023-08-06T02:19:15;11.52;;;2.30;;
46028;SDS011;31763;48.180;7.904;2023-08-06T02:21:43;6.93;;;3.50;;
46028;SDS011;31763;48.180;7.904;2023-08-06T02:24:10;4.72;;;2.85;;
46028;SDS011;31763;48.180;7.904;2023-08-06T02:26:37;5.50;;;1.73;;
46028;SDS011;31763;48.180;7.904;2023-08-06T02:29:05;4.40;;;1.67;;
46028;SDS011;31763;48.180;7.904;2023-08-06T02:31:32;2.75;;;1.77;;
46028;SDS011;31763;48.180;7.904;2023-08-06T02:33:59;3.08;;;1.95;;
46028;SDS011;31763;48.180;7.904;2023-08-06T02:36:26;3.55;;;1.75;;
46028;SDS011;31763;48.180;7.904;2023-08-06T02:38:55;7.72;;;2.92;;
46028;SDS011;31763;48.180;7.904;2023-08-06T02:41:23;8.63;;;3.55;;
46028;SDS011;31763;48.180;7.904;2023-08-06T02:43:50;4.88;;;2.38;;
46028;SDS011;31763;48.180;7.904;2023-08-06T02:46:18;4.43;;;2.50;;
46028;SDS011;31763;48.180;7.904;2023-08-06T02:48:45;3.58;;;2.20;;
46028;SDS011;31763;48.180;7.904;2023-08-06T02:51:12;8.30;;;2.85;;
46028;SDS011;31763;48.180;7.904;2023-08-06T02:53:40;7.18;;;3.25;;
46028;SDS011;31763;48.180;7.904;2023-08-06T02:56:07;6.55;;;3.08;;
46028;SDS011;31763;48.180;7.904;2023-08-06T02:58:34;5.60;;;2.75;;
46028;SDS011;31763;48.180;7.904;2023-08-06T03:01:02;7.93;;;1.95;;
46028;SDS011;31763;48.180;7.904;2023-08-06T03:03:31;6.25;;;2.70;;
46028;SDS011;31763;48.180;7.904;2023-08-06T03:05:59;7.28;;;2.42;;
46028;SDS011;31763;48.180;7.904;2023-08-06T03:08:26;6.80;;;1.98;;
46028;SDS011;31763;48.180;7.904;2023-08-06T03:10:54;4.57;;;1.90;;
46028;SDS011;31763;48.180;7.904;2023-08-06T03:13:21;3.65;;;1.55;;
46028;SDS011;31763;48.180;7.904;2023-08-06T03:15:55;3.83;;;1.30;;
46028;SDS011;31763;48.180;7.904;2023-08-06T03:18:23;4.03;;;1.50;;
46028;SDS011;31763;48.180;7.904;2023-08-06T03:20:52;3.97;;;1.48;;
46028;SDS011;31763;48.180;7.904;2023-08-06T03:23:19;5.85;;;1.60;;
46028;SDS011;31763;48.180;7.904;2023-08-06T03:25:46;6.75;;;2.15;;
46028;SDS011;31763;48.180;7.904;2023-08-06T03:28:14;3.92;;;2.47;;
46028;SDS011;31763;48.180;7.904;2023-08-06T03:30:41;7.10;;;2.53;;
46028;SDS011;31763;48.180;7.904;2023-08-06T03:33:08;5.93;;;3.10;;
46028;SDS011;31763;48.180;7.904;2023-08-06T03:35:35;5.40;;;3.33;;
46028;SDS011;31763;48.180;7.904;2023-08-06T03:38:03;5.80;;;3.28;;
46028;SDS011;31763;48.180;7.904;2023-08-06T03:40:30;5.93;;;3.03;;
46028;SDS011;31763;48.180;7.904;2023-08-06T03:42:57;7.47;;;3.03;;
46028;SDS011;31763;48.180;7.904;2023-08-06T03:45:24;4.20;;;1.63;;
46028;SDS011;31763;48.180;7.904;2023-08-06T03:47:52;4.15;;;2.00;;
46028;SDS011;31763;48.180;7.904;2023-08-06T03:50:19;5.40;;;1.98;;
46028;SDS011;31763;48.180;7.904;2023-08-06T03:52:46;0.60;;;0.40;;
46028;SDS011;31763;48.180;7.904;2023-08-06T03:55:13;3.30;;;1.27;;
46028;SDS011;31763;48.180;7.904;2023-08-06T03:57:41;4.95;;;1.73;;
46028;SDS011;31763;48.180;7.904;2023-08-06T04:00:08;1.30;;;1.00;;
46028;SDS011;31763;48.180;7.904;2023-08-06T04:02:36;3.20;;;0.63;;
46028;SDS011;31763;48.180;7.904;2023-08-06T04:05:03;0.82;;;0.32;;
46028;SDS011;31763;48.180;7.904;2023-08-06T04:07:30;2.47;;;0.70;;
46028;SDS011;31763;48.180;7.904;2023-08-06T04:09:58;2.15;;;0.70;;
46028;SDS011;31763;48.180;7.904;2023-08-06T04:12:27;2.47;;;0.50;;
46028;SDS011;31763;48.180;7.904;2023-08-06T04:14:55;2.45;;;0.30;;
46028;SDS011;31763;48.180;7.904;2023-08-06T04:17:26;3.15;;;1.30;;
46028;SDS011;31763;48.180;7.904;2023-08-06T04:19:54;2.30;;;0.50;;
46028;SDS011;31763;48.180;7.904;2023-08-06T04:22:24;1.00;;;0.75;;
46028;SDS011;31763;48.180;7.904;2023-08-06T04:24:52;2.40;;;0.63;;
46028;SDS011;31763;48.180;7.904;2023-08-06T04:27:19;2.70;;;0.80;;
46028;SDS011;31763;48.180;7.904;2023-08-06T04:29:46;2.92;;;0.70;;
46028;SDS011;31763;48.180;7.904;2023-08-06T04:32:14;2.47;;;0.30;;
46028;SDS011;31763;48.180;7.904;2023-08-06T04:34:41;1.42;;;0.80;;
46028;SDS011;31763;48.180;7.904;2023-08-06T04:37:09;3.17;;;1.00;;
46028;SDS011;31763;48.180;7.904;2023-08-06T04:39:36;1.85;;;0.63;;
46028;SDS011;31763;48.180;7.904;2023-08-06T04:42:04;5.45;;;1.75;;
46028;SDS011;31763;48.180;7.904;2023-08-06T04:44:31;1.75;;;0.95;;
46028;SDS011;31763;48.180;7.904;2023-08-06T04:46:58;3.42;;;1.48;;
46028;SDS011;31763;48.180;7.904;2023-08-06T04:49:26;2.80;;;1.02;;
46028;SDS011;31763;48.180;7.904;2023-08-06T04:51:53;3.20;;;1.00;;
46028;SDS011;31763;48.180;7.904;2023-08-06T04:54:21;5.60;;;1.45;;
46028;SDS011;31763;48.180;7.904;2023-08-06T04:56:48;6.35;;;1.52;;
46028;SDS011;31763;48.180;7.904;2023-08-06T04:59:15;6.18;;;1.08;;
46028;SDS011;31763;48.180;7.904;2023-08-06T05:01:42;4.15;;;1.17;;
46028;SDS011;31763;48.180;7.904;2023-08-06T05:04:09;5.55;;;1.50;;
46028;SDS011;31763;48.180;7.904;2023-08-06T05:06:37;2.90;;;1.25;;
46028;SDS011;31763;48.180;7.904;2023-08-06T05:09:04;4.22;;;1.42;;
46028;SDS011;31763;48.180;7.904;2023-08-06T05:11:32;7.82;;;2.92;;
46028;SDS011;31763;48.180;7.904;2023-08-06T05:13:59;5.03;;;1.50;;
46028;SDS011;31763;48.180;7.904;2023-08-06T05:16:27;2.15;;;0.80;;
46028;SDS011;31763;48.180;7.904;2023-08-06T05:18:54;1.90;;;1.05;;
46028;SDS011;31763;48.180;7.904;2023-08-06T05:21:21;7.35;;;2.17;;
46028;SDS011;31763;48.180;7.904;2023-08-06T05:23:49;6.13;;;1.67;;
46028;SDS011;31763;48.180;7.904;2023-08-06T05:26:16;6.30;;;1.88;;
46028;SDS011;31763;48.180;7.904;2023-08-06T05:28:45;4.38;;;1.30;;
46028;SDS011;31763;48.180;7.904;2023-08-06T05:31:12;3.58;;;1.38;;
46028;SDS011;31763;48.180;7.904;2023-08-06T05:33:40;6.22;;;2.25;;
46028;SDS011;31763;48.180;7.904;2023-08-06T05:36:07;2.72;;;1.88;;
46028;SDS011;31763;48.180;7.904;2023-08-06T05:38:34;5.65;;;2.05;;
46028;SDS011;31763;48.180;7.904;2023-08-06T05:41:01;9.93;;;2.78;;
46028;SDS011;31763;48.180;7.904;2023-08-06T05:43:29;8.82;;;1.50;;
46028;SDS011;31763;48.180;7.904;2023-08-06T05:45:56;6.25;;;1.52;;
46028;SDS011;31763;48.180;7.904;2023-08-06T05:48:23;8.98;;;1.95;;
46028;SDS011;31763;48.180;7.904;2023-08-06T05:50:51;3.17;;;0.98;;
46028;SDS011;31763;48.180;7.904;2023-08-06T05:53:19;12.98;;;2.92;;
46028;SDS011;31763;48.180;7.904;2023-08-06T05:55:46;6.43;;;3.13;;
46028;SDS011;31763;48.180;7.904;2023-08-06T05:58:14;7.45;;;1.30;;
46028;SDS011;31763;48.180;7.904;2023-08-06T06:00:41;5.60;;;1.60;;
46028;SDS011;31763;48.180;7.904;2023-08-06T06:03:13;10.25;;;2.45;;
46028;SDS011;31763;48.180;7.904;2023-08-06T06:05:40;6.20;;;1.48;;
46028;SDS011;31763;48.180;7.904;2023-08-06T06:08:08;2.95;;;1.25;;
46028;SDS011;31763;48.180;7.904;2023-08-06T06:10:35;5.00;;;1.20;;
46028;SDS011;31763;48.180;7.904;2023-08-06T06:13:02;3.63;;;1.20;;
46028;SDS011;31763;48.180;7.904;2023-08-06T06:15:29;4.15;;;1.65;;
46028;SDS011;31763;48.180;7.904;2023-08-06T06:17:57;2.22;;;1.48;;
46028;SDS011;31763;48.180;7.904;2023-08-06T06:20:24;3.50;;;1.73;;
46028;SDS011;31763;48.180;7.904;2023-08-06T06:22:51;4.22;;;2.08;;
46028;SDS011;31763;48.180;7.904;2023-08-06T06:25:19;5.50;;;1.55;;
46028;SDS011;31763;48.180;7.904;2023-08-06T06:27:46;7.68;;;2.42;;
46028;SDS011;31763;48.180;7.904;2023-08-06T06:30:13;4.30;;;1.83;;
46028;SDS011;31763;48.180;7.904;2023-08-06T06:32:41;9.32;;;2.22;;
46028;SDS011;31763;48.180;7.904;2023-08-06T06:35:08;2.05;;;1.00;;
46028;SDS011;31763;48.180;7.904;2023-08-06T06:37:35;7.93;;;2.72;;
46028;SDS011;31763;48.180;7.904;2023-08-06T06:40:03;10.10;;;2.67;;
46028;SDS011;31763;48.180;7.904;2023-08-06T06:42:31;8.75;;;2.42;;
46028;SDS011;31763;48.180;7.904;2023-08-06T06:44:58;3.53;;;0.93;;
46028;SDS011;31763;48.180;7.904;2023-08-06T06:47:25;3.58;;;0.70;;
46028;SDS011;31763;48.180;7.904;2023-08-06T06:49:52;10.35;;;2.33;;
46028;SDS011;31763;48.180;7.904;2023-08-06T06:52:20;2.58;;;1.52;;
46028;SDS011;31763;48.180;7.904;2023-08-06T06:54:47;2.78;;;1.02;;
46028;SDS011;31763;48.180;7.904;2023-08-06T06:57:14;5.72;;;1.95;;
46028;SDS011;31763;48.180;7.904;2023-08-06T06:59:41;10.73;;;3.42;;
46028;SDS011;31763;48.180;7.904;2023-08-06T07:02:09;6.10;;;1.75;;
46028;SDS011;31763;48.180;7.904;2023-08-06T07:04:36;5.40;;;1.67;;
46028;SDS011;31763;48.180;7.904;2023-08-06T07:07:03;2.67;;;0.88;;
46028;SDS011;31763;48.180;7.904;2023-08-06T07:09:31;9.63;;;2.40;;
46028;SDS011;31763;48.180;7.904;2023-08-06T07:11:58;5.80;;;1.92;;
46028;SDS011;31763;48.180;7.904;2023-08-06T07:14:25;4.82;;;2.42;;
46028;SDS011;31763;48.180;7.904;2023-08-06T07:16:53;4.22;;;1.50;;
46028;SDS011;31763;48.180;7.904;2023-08-06T07:19:20;5.70;;;1.52;;
46028;SDS011;31763;48.180;7.904;2023-08-06T07:21:47;3.22;;;1.33;;
46028;SDS011;31763;48.180;7.904;2023-08-06T07:24:14;3.85;;;1.08;;
46028;SDS011;31763;48.180;7.904;2023-08-06T07:26:42;1.10;;;1.00;;
46028;SDS011;31763;48.180;7.904;2023-08-06T07:29:09;2.25;;;1.20;;
46028;SDS011;31763;48.180;7.904;2023-08-06T07:31:36;3.35;;;1.35;;
46028;SDS011;31763;48.180;7.904;2023-08-06T07:34:03;2.55;;;1.05;;
46028;SDS011;31763;48.180;7.904;2023-08-06T07:36:30;4.82;;;1.77;;
46028;SDS011;31763;48.180;7.904;2023-08-06T07:38:58;0.88;;;0.65;;
46028;SDS011;31763;48.180;7.904;2023-08-06T07:41:25;2.97;;;1.33;;
46028;SDS011;31763;48.180;7.904;2023-08-06T07:43:52;5.72;;;1.98;;
46028;SDS011;31763;48.180;7.904;2023-08-06T07:46:20;7.13;;;0.73;;
46028;SDS011;31763;48.180;7.904;2023-08-06T07:48:47;2.13;;;1.10;;
46028;SDS011;31763;48.180;7.904;2023-08-06T07:51:14;1.95;;;1.15;;
46028;SDS011;31763;48.180;7.904;2023-08-06T07:53:42;3.22;;;1.20;;
46028;SDS011;31763;48.180;7.904;2023-08-06T07:56:09;1.95;;;1.15;;
46028;SDS011;31763;48.180;7.904;2023-08-06T07:58:36;1.80;;;1.27;;
46028;SDS011;31763;48.180;7.904;2023-08-06T08:01:03;3.05;;;1.52;;
46028;SDS011;31763;48.180;7.904;2023-08-06T08:03:32;2.10;;;1.35;;
46028;SDS011;31763;48.180;7.904;2023-08-06T08:05:59;3.17;;;0.95;;
46028;SDS011;31763;48.180;7.904;2023-08-06T08:08:26;2.30;;;1.15;;
46028;SDS011;31763;48.180;7.904;2023-08-06T08:10:54;1.35;;;0.95;;
46028;SDS011;31763;48.180;7.904;2023-08-06T08:13:21;3.30;;;2.17;;
46028;SDS011;31763;48.180;7.904;2023-08-06T08:15:48;1.55;;;1.15;;
46028;SDS011;31763;48.180;7.904;2023-08-06T08:18:15;0.80;;;0.80;;
46028;SDS011;31763;48.180;7.904;2023-08-06T08:20:43;2.65;;;0.93;;
46028;SDS011;31763;48.180;7.904;2023-08-06T08:23:10;0.98;;;0.77;;
46028;SDS011;31763;48.180;7.904;2023-08-06T08:25:38;2.65;;;0.93;;
46028;SDS011;31763;48.180;7.904;2023-08-06T08:28:06;2.13;;;1.10;;
46028;SDS011;31763;48.180;7.904;2023-08-06T08:30:34;1.90;;;1.02;;
46028;SDS011;31763;48.180;7.904;2023-08-06T08:33:02;0.50;;;0.50;;
46028;SDS011;31763;48.180;7.904;2023-08-06T08:35:29;0.45;;;0.30;;
46028;SDS011;31763;48.180;7.904;2023-08-06T08:37:56;1.70;;;1.00;;
46028;SDS011;31763;48.180;7.904;2023-08-06T08:40:24;2.53;;;1.20;;
46028;SDS011;31763;48.180;7.904;2023-08-06T08:42:59;3.85;;;0.50;;
46028;SDS011;31763;48.180;7.904;2023-08-06T08:45:28;2.03;;;0.80;;
46028;SDS011;31763;48.180;7.904;2023-08-06T08:47:56;0.40;;;0.40;;
46028;SDS011;31763;48.180;7.904;2023-08-06T08:50:24;1.92;;;0.77;;
46028;SDS011;31763;48.180;7.904;2023-08-06T08:52:51;0.70;;;0.70;;
46028;SDS011;31763;48.180;7.904;2023-08-06T08:55:18;1.65;;;1.00;;
46028;SDS011;31763;48.180;7.904;2023-08-06T08:57:47;1.17;;;1.00;;
46028;SDS011;31763;48.180;7.904;2023-08-06T09:00:14;1.00;;;0.90;;
46028;SDS011;31763;48.180;7.904;2023-08-06T09:02:42;1.30;;;0.73;;
46028;SDS011;31763;48.180;7.904;2023-08-06T09:05:09;1.17;;;0.68;;
46028;SDS011;31763;48.180;7.904;2023-08-06T09:07:44;2.47;;;0.90;;
46028;SDS011;31763;48.180;7.904;2023-08-06T09:10:16;2.05;;;1.05;;
46028;SDS011;31763;48.180;7.904;2023-08-06T09:12:44;1.65;;;1.00;;
46028;SDS011;31763;48.180;7.904;2023-08-06T09:15:12;1.50;;;1.08;;
46028;SDS011;31763;48.180;7.904;2023-08-06T09:17:39;0.60;;;0.60;;
46028;SDS011;31763;48.180;7.904;2023-08-06T09:20:10;1.85;;;0.68;;
46028;SDS011;31763;48.180;7.904;2023-08-06T09:22:38;1.08;;;0.82;;
46028;SDS011;31763;48.180;7.904;2023-08-06T09:25:06;2.55;;;1.35;;
46028;SDS011;31763;48.180;7.904;2023-08-06T09:27:37;1.10;;;0.52;;
46028;SDS011;31763;48.180;7.904;2023-08-06T09:30:05;0.40;;;0.40;;
46028;SDS011;31763;48.180;7.904;2023-08-06T09:32:44;2.17;;;1.30;;
46028;SDS011;31763;48.180;7.904;2023-08-06T09:35:15;2.97;;;1.20;;
46028;SDS011;31763;48.180;7.904;2023-08-06T09:37:43;0.50;;;0.50;;
46028;SDS011;31763;48.180;7.904;2023-08-06T09:40:30;3.40;;;1.08;;
46028;SDS011;31763;48.180;7.904;2023-08-06T09:42:58;5.50;;;0.70;;
46028;SDS011;31763;48.180;7.904;2023-08-06T09:45:33;1.02;;;0.60;;
46028;SDS011;31763;48.180;7.904;2023-08-06T09:48:08;1.20;;;0.73;;
46028;SDS011;31763;48.180;7.904;2023-08-06T09:50:37;3.13;;;0.80;;
46028;SDS011;31763;48.180;7.904;2023-08-06T09:53:05;0.70;;;0.70;;
46028;SDS011;31763;48.180;7.904;2023-08-06T09:55:36;2.10;;;1.20;;
46028;SDS011;31763;48.180;7.904;2023-08-06T09:58:04;0.50;;;0.38;;
46028;SDS011;31763;48.180;7.904;2023-08-06T10:00:31;0.60;;;0.60;;
46028;SDS011;31763;48.180;7.904;2023-08-06T10:03:05;0.30;;;0.30;;
46028;SDS011;31763;48.180;7.904;2023-08-06T10:05:34;1.10;;;0.70;;
46028;SDS011;31763;48.180;7.904;2023-08-06T10:08:02;0.75;;;0.40;;
46028;SDS011;31763;48.180;7.904;2023-08-06T10:10:31;0.40;;;0.40;;
46028;SDS011;31763;48.180;7.904;2023-08-06T10:12:59;0.43;;;0.43;;
46028;SDS011;31763;48.180;7.904;2023-08-06T10:15:30;0.47;;;0.47;;
46028;SDS011;31763;48.180;7.904;2023-08-06T10:17:59;1.27;;;0.50;;
46028;SDS011;31763;48.180;7.904;2023-08-06T10:20:26;0.32;;;0.30;;
46028;SDS011;31763;48.180;7.904;2023-08-06T10:22:59;0.28;;;0.20;;
46028;SDS011;31763;48.180;7.904;2023-08-06T10:25:35;0.22;;;0.22;;
46028;SDS011;31763;48.180;7.904;2023-08-06T10:28:07;1.55;;;0.70;;
46028;SDS011;31763;48.180;7.904;2023-08-06T10:30:42;0.40;;;0.40;;
46028;SDS011;31763;48.180;7.904;2023-08-06T10:33:13;1.20;;;0.63;;
46028;SDS011;31763;48.180;7.904;2023-08-06T10:35:40;0.43;;;0.43;;
46028;SDS011;31763;48.180;7.904;2023-08-06T10:38:17;1.38;;;0.50;;
46028;SDS011;31763;48.180;7.904;2023-08-06T10:40:49;1.15;;;0.60;;
46028;SDS011;31763;48.180;7.904;2023-08-06T10:45:58;1.83;;;0.60;;
46028;SDS011;31763;48.180;7.904;2023-08-06T10:48:38;0.70;;;0.60;;
46028;SDS011;31763;48.180;7.904;2023-08-06T10:51:11;0.40;;;0.30;;
46028;SDS011;31763;48.180;7.904;2023-08-06T10:53:41;0.50;;;0.40;;
46028;SDS011;31763;48.180;7.904;2023-08-06T10:56:21;0.98;;;0.40;;
46028;SDS011;31763;48.180;7.904;2023-08-06T10:58:50;0.60;;;0.50;;
46028;SDS011;31763;48.180;7.904;2023-08-06T11:01:19;0.97;;;0.40;;
46028;SDS011;31763;48.180;7.904;2023-08-06T11:03:49;0.68;;;0.30;;
46028;SDS011;31763;48.180;7.904;2023-08-06T11:06:20;0.40;;;0.30;;
46028;SDS011;31763;48.180;7.904;2023-08-06T11:08:49;4.20;;;0.47;;
46028;SDS011;31763;48.180;7.904;2023-08-06T11:11:19;0.50;;;0.32;;
46028;SDS011;31763;48.180;7.904;2023-08-06T11:13:49;0.40;;;0.30;;
46028;SDS011;31763;48.180;7.904;2023-08-06T11:16:18;1.13;;;0.57;;
46028;SDS011;31763;48.180;7.904;2023-08-06T11:18:48;0.57;;;0.40;;
46028;SDS011;31763;48.180;7.904;2023-08-06T11:21:14;0.52;;;0.35;;
46028;SDS011;31763;48.180;7.904;2023-08-06T11:23:46;0.38;;;0.30;;
46028;SDS011;31763;48.180;7.904;2023-08-06T11:26:18;0.47;;;0.10;;
46028;SDS011;31763;48.180;7.904;2023-08-06T11:28:50;0.30;;;0.28;;
46028;SDS011;31763;48.180;7.904;2023-08-06T11:31:23;0.40;;;0.20;;
46028;SDS011;31763;48.180;7.904;2023-08-06T11:33:53;0.50;;;0.20;;
46028;SDS011;31763;48.180;7.904;2023-08-06T11:36:34;0.30;;;0.20;;
46028;SDS011;31763;48.180;7.904;2023-08-06T11:39:06;0.30;;;0.25;;
46028;SDS011;31763;48.180;7.904;2023-08-06T11:41:34;0.40;;;0.30;;
46028;SDS011;31763;48.180;7.904;2023-08-06T11:44:04;0.50;;;0.20;;
46028;SDS011;31763;48.180;7.904;2023-08-06T11:46:49;0.55;;;0.22;;
46028;SDS011;31763;48.180;7.904;2023-08-06T11:49:40;0.35;;;0.22;;
46028;SDS011;31763;48.180;7.904;2023-08-06T11:52:18;0.20;;;0.20;;
46028;SDS011;31763;48.180;7.904;2023-08-06T11:57:50;0.43;;;0.20;;
46028;SDS011;31763;48.180;7.904;2023-08-06T12:00:18;1.40;;;0.20;;
46028;SDS011;31763;48.180;7.904;2023-08-06T12:02:48;0.98;;;0.30;;
46028;SDS011;31763;48.180;7.904;2023-08-06T12:05:22;0.30;;;0.20;;
46028;SDS011;31763;48.180;7.904;2023-08-06T12:07:51;0.20;;;0.20;;
46028;SDS011;31763;48.180;7.904;2023-08-06T12:10:24;0.45;;;0.30;;
46028;SDS011;31763;48.180;7.904;2023-08-06T12:12:53;0.55;;;0.50;;
46028;SDS011;31763;48.180;7.904;2023-08-06T12:15:20;0.57;;;0.30;;
46028;SDS011;31763;48.180;7.904;2023-08-06T12:17:48;0.63;;;0.55;;
46028;SDS011;31763;48.180;7.904;2023-08-06T12:20:15;0.57;;;0.40;;
46028;SDS011;31763;48.180;7.904;2023-08-06T12:22:43;0.28;;;0.20;;
46028;SDS011;31763;48.180;7.904;2023-08-06T12:25:11;0.40;;;0.22;;
46028;SDS011;31763;48.180;7.904;2023-08-06T12:27:40;0.60;;;0.30;;
46028;SDS011;31763;48.180;7.904;2023-08-06T12:30:09;0.20;;;0.20;;
46028;SDS011;31763;48.180;7.904;2023-08-06T12:32:37;1.15;;;0.30;;
46028;SDS011;31763;48.180;7.904;2023-08-06T12:35:05;0.52;;;0.20;;
46028;SDS011;31763;48.180;7.904;2023-08-06T12:37:34;0.77;;;0.43;;
46028;SDS011;31763;48.180;7.904;2023-08-06T12:40:01;0.45;;;0.30;;
46028;SDS011;31763;48.180;7.904;2023-08-06T12:42:52;0.20;;;0.20;;
46028;SDS011;31763;48.180;7.904;2023-08-06T12:45:20;0.85;;;0.40;;
46028;SDS011;31763;48.180;7.904;2023-08-06T12:47:48;0.25;;;0.10;;
46028;SDS011;31763;48.180;7.904;2023-08-06T12:50:16;1.00;;;0.43;;
46028;SDS011;31763;48.180;7.904;2023-08-06T12:52:44;0.70;;;0.30;;
46028;SDS011;31763;48.180;7.904;2023-08-06T12:55:11;0.63;;;0.30;;
46028;SDS011;31763;48.180;7.904;2023-08-06T12:57:39;0.32;;;0.30;;
46028;SDS011;31763;48.180;7.904;2023-08-06T13:00:23;0.25;;;0.20;;
46028;SDS011;31763;48.180;7.904;2023-08-06T13:02:50;0.38;;;0.30;;
46028;SDS011;31763;48.180;7.904;2023-08-06T13:05:18;2.53;;;0.50;;
46028;SDS011;31763;48.180;7.904;2023-08-06T13:07:46;0.85;;;0.50;;
46028;SDS011;31763;48.180;7.904;2023-08-06T13:10:13;0.60;;;0.32;;
46028;SDS011;31763;48.180;7.904;2023-08-06T13:12:40;0.50;;;0.40;;
46028;SDS011;31763;48.180;7.904;2023-08-06T13:15:08;2.63;;;0.40;;
46028;SDS011;31763;48.180;7.904;2023-08-06T13:17:36;1.27;;;0.50;;
46028;SDS011;31763;48.180;7.904;2023-08-06T13:20:03;0.57;;;0.43;;
46028;SDS011;31763;48.180;7.904;2023-08-06T13:22:31;1.48;;;0.50;;
46028;SDS011;31763;48.180;7.904;2023-08-06T13:24:58;2.78;;;0.47;;
46028;SDS011;31763;48.180;7.904;2023-08-06T13:27:27;1.42;;;0.70;;
46028;SDS011;31763;48.180;7.904;2023-08-06T13:29:54;0.80;;;0.50;;
46028;SDS011;31763;48.180;7.904;2023-08-06T13:32:21;1.45;;;0.63;;
46028;SDS011;31763;48.180;7.904;2023-08-06T13:34:48;1.63;;;0.82;;
46028;SDS011;31763;48.180;7.904;2023-08-06T13:37:16;1.33;;;0.80;;
46028;SDS011;31763;48.180;7.904;2023-08-06T13:39:43;1.15;;;0.60;;
46028;SDS011;31763;48.180;7.904;2023-08-06T13:42:10;2.45;;;0.70;;
46028;SDS011;31763;48.180;7.904;2023-08-06T13:44:37;0.50;;;0.50;;
46028;SDS011;31763;48.180;7.904;2023-08-06T13:47:04;4.60;;;1.00;;
46028;SDS011;31763;48.180;7.904;2023-08-06T13:49:32;1.13;;;0.60;;
46028;SDS011;31763;48.180;7.904;2023-08-06T13:51:59;1.73;;;0.95;;
46028;SDS011;31763;48.180;7.904;2023-08-06T13:54:45;0.93;;;0.45;;
46028;SDS011;31763;48.180;7.904;2023-08-06T13:57:12;0.93;;;0.45;;
46028;SDS011;31763;48.180;7.904;2023-08-06T13:59:39;1.17;;;0.60;;
46028;SDS011;31763;48.180;7.904;2023-08-06T14:02:07;1.15;;;0.70;;
46028;SDS011;31763;48.180;7.904;2023-08-06T14:04:34;1.58;;;0.43;;
46028;SDS011;31763;48.180;7.904;2023-08-06T14:07:03;1.08;;;0.50;;
46028;SDS011;31763;48.180;7.904;2023-08-06T14:09:31;1.33;;;0.80;;
46028;SDS011;31763;48.180;7.904;2023-08-06T14:12:00;2.25;;;0.80;;
46028;SDS011;31763;48.180;7.904;2023-08-06T14:14:27;0.95;;;0.70;;
46028;SDS011;31763;48.180;7.904;2023-08-06T14:16:57;0.80;;;0.65;;
46028;SDS011;31763;48.180;7.904;2023-08-06T14:19:36;0.75;;;0.57;;
46028;SDS011;31763;48.180;7.904;2023-08-06T14:22:07;1.27;;;0.60;;
46028;SDS011;31763;48.180;7.904;2023-08-06T14:24:37;1.00;;;0.60;;
46028;SDS011;31763;48.180;7.904;2023-08-06T14:27:06;1.55;;;0.95;;
46028;SDS011;31763;48.180;7.904;2023-08-06T14:29:35;0.85;;;0.63;;
46028;SDS011;31763;48.180;7.904;2023-08-06T14:32:04;1.23;;;0.60;;
46028;SDS011;31763;48.180;7.904;2023-08-06T14:34:34;1.27;;;0.70;;
46028;SDS011;31763;48.180;7.904;2023-08-06T14:37:03;2.97;;;0.77;;
46028;SDS011;31763;48.180;7.904;2023-08-06T14:39:32;2.75;;;1.00;;
46028;SDS011;31763;48.180;7.904;2023-08-06T14:42:10;5.38;;;1.33;;
46028;SDS011;31763;48.180;7.904;2023-08-06T14:44:37;2.92;;;0.90;;
46028;SDS011;31763;48.180;7.904;2023-08-06T14:47:04;1.35;;;0.60;;
46028;SDS011;31763;48.180;7.904;2023-08-06T14:49:31;0.80;;;0.70;;
46028;SDS011;31763;48.180;7.904;2023-08-06T14:51:59;3.30;;;0.90;;
46028;SDS011;31763;48.180;7.904;2023-08-06T14:54:26;0.95;;;0.75;;
46028;SDS011;31763;48.180;7.904;2023-08-06T14:56:53;1.58;;;0.80;;
46028;SDS011;31763;48.180;7.904;2023-08-06T14:59:21;1.20;;;0.70;;
46028;SDS011;31763;48.180;7.904;2023-08-06T15:01:48;1.13;;;0.75;;
46028;SDS011;31763;48.180;7.904;2023-08-06T15:04:20;2.45;;;1.10;;
46028;SDS011;31763;48.180;7.904;2023-08-06T15:06:49;1.67;;;0.70;;
46028;SDS011;31763;48.180;7.904;2023-08-06T15:09:16;2.00;;;1.08;;
46028;SDS011;31763;48.180;7.904;2023-08-06T15:11:44;4.88;;;1.20;;
46028;SDS011;31763;48.180;7.904;2023-08-06T15:14:11;1.38;;;0.90;;